Time;durP1;ratioP1;P1;durP2;ratioP2;P2;SDS_P1;SDS_P2;PMS_P1;PMS_P2;Temp;Humidity;BMP_temperature;BMP_pressure;BME280_temperature;BME280_humidity;BME280_pressure;Samples;Min_cycle;Max_cycle;Signal;HPM_P1;HPM_P2
2021/12/14 00:00:20;;;;;;;54.05;35.78;;;;;;;7.45;100.00;102390.81;4825254;29;20174;-78
2021/12/14 00:02:49;;;;;;;53.38;35.97;;;;;;;7.48;100.00;102389.94;4840577;29;20365;-79
2021/12/14 00:05:17;;;;;;;54.20;36.88;;;;;;;7.47;100.00;102389.03;4840780;29;20625;-78
2021/12/14 00:07:43;;;;;;;49.97;34.33;;;;;;;7.48;100.00;102393.50;4839660;29;20175;-79
2021/12/14 00:10:27;;;;;;;51.83;33.63;;;;;;;7.47;100.00;102388.16;4840113;29;20630;-78
2021/12/14 00:12:59;;;;;;;48.13;33.03;;;;;;;7.51;100.00;102388.16;4841867;29;20207;-79
2021/12/14 00:15:25;;;;;;;50.20;33.97;;;;;;;7.54;100.00;102388.19;4841067;29;20183;-79
2021/12/14 00:17:57;;;;;;;43.67;31.85;;;;;;;7.56;100.00;102381.03;4839245;29;20235;-78
2021/12/14 00:20:40;;;;;;;48.30;33.10;;;;;;;7.52;100.00;102381.03;4823457;29;20183;-78
2021/12/14 00:25:48;;;;;;;47.30;33.10;;;;;;;7.49;100.00;102381.06;4840556;29;20716;-78
2021/12/14 00:28:25;;;;;;;44.10;32.72;;;;;;;7.45;100.00;102364.16;4839400;29;20175;-78
2021/12/14 00:30:52;;;;;;;46.20;32.08;;;;;;;7.44;100.00;102367.72;4842631;29;20210;-78
2021/12/14 00:33:21;;;;;;;46.08;32.33;;;;;;;7.43;100.00;102358.84;4842994;29;20179;-78
2021/12/14 00:35:49;;;;;;;54.97;33.80;;;;;;;7.45;100.00;102355.28;4827041;29;20713;-78
2021/12/14 00:38:17;;;;;;;48.80;34.10;;;;;;;7.48;100.00;102360.59;4842870;29;20190;-78
2021/12/14 00:40:47;;;;;;;50.92;35.03;;;;;;;7.44;100.00;102359.72;4843237;29;20659;-78
2021/12/14 00:43:13;;;;;;;51.22;36.13;;;;;;;7.45;100.00;102353.50;4841960;29;20221;-78
2021/12/14 00:45:42;;;;;;;51.28;36.90;;;;;;;7.41;100.00;102354.38;4843114;29;20609;-78
2021/12/14 00:48:10;;;;;;;51.83;36.78;;;;;;;7.44;100.00;102362.41;4841534;29;20558;-78
2021/12/14 00:50:37;;;;;;;54.55;36.55;;;;;;;7.47;100.00;102357.03;4841464;29;20187;-78
2021/12/14 00:53:03;;;;;;;52.45;36.67;;;;;;;7.45;100.00;102363.28;4842950;29;20201;-78
2021/12/14 00:57:59;;;;;;;51.38;36.40;;;;;;;7.39;100.00;102369.47;4857391;29;20379;-77
2021/12/14 01:00:30;;;;;;;51.30;35.80;;;;;;;7.37;100.00;102368.63;4828826;29;20186;-77
2021/12/14 01:02:56;;;;;;;49.97;37.92;;;;;;;7.36;100.00;102362.38;4861116;29;20233;-78
2021/12/14 01:05:27;;;;;;;46.50;35.85;;;;;;;7.38;100.00;102365.06;4845849;29;20214;-77
2021/12/14 01:07:53;;;;;;;55.60;39.88;;;;;;;7.33;100.00;102370.41;4846995;29;20213;-78
2021/12/14 01:10:31;;;;;;;51.15;37.97;;;;;;;7.33;100.00;102370.41;4860892;29;20785;-78
2021/12/14 01:13:02;;;;;;;53.38;38.47;;;;;;;7.32;100.00;102373.06;4861497;29;20193;-78
2021/12/14 01:18:29;;;;;;;50.05;38.03;;;;;;;7.30;100.00;102375.72;4847611;29;20210;-80
2021/12/14 01:21:27;;;;;;;47.95;36.85;;;;;;;7.31;100.00;102372.16;4861445;29;20201;-79
2021/12/14 01:24:03;;;;;;;47.00;35.70;;;;;;;7.27;100.00;102362.38;4832378;29;20183;-79
2021/12/14 01:26:32;;;;;;;50.15;35.90;;;;;;;7.24;100.00;102362.41;4861517;29;20504;-79
2021/12/14 01:28:58;;;;;;;50.00;36.13;;;;;;;7.24;100.00;102359.72;4861231;29;20182;-79
2021/12/14 01:31:33;;;;;;;46.83;35.47;;;;;;;7.22;100.00;102340.19;4845741;29;20683;-80
2021/12/14 01:34:06;;;;;;;50.22;34.83;;;;;;;7.19;100.00;102353.50;4862467;29;20186;-79
2021/12/14 01:41:56;;;;;;;46.13;34.45;;;;;;;7.08;100.00;102364.16;4860727;29;20269;-79
2021/12/14 01:44:26;;;;;;;45.13;35.80;;;;;;;7.09;100.00;102347.28;4861003;29;20170;-80
2021/12/14 01:47:01;;;;;;;43.47;34.40;;;;;;;7.18;100.00;102346.41;4861759;29;20186;-80
2021/12/14 01:49:40;;;;;;;46.85;34.83;;;;;;;7.10;100.00;102354.38;4848195;29;20174;-80
2021/12/14 01:52:22;;;;;;;45.35;33.90;;;;;;;7.10;100.00;102348.16;4862264;29;20280;-80
2021/12/14 01:54:52;;;;;;;38.70;33.17;;;;;;;7.10;100.00;102337.50;4863270;29;20256;-80
2021/12/14 01:57:22;;;;;;;43.80;33.20;;;;;;;7.04;100.00;102335.75;4862105;29;20590;-79
2021/12/14 01:59:54;;;;;;;43.25;34.40;;;;;;;7.06;100.00;102327.72;4846379;29;20209;-80
2021/12/14 02:02:42;;;;;;;47.78;33.40;;;;;;;7.04;100.00;102325.09;4860960;29;20222;-80
2021/12/14 02:05:20;;;;;;;41.38;32.35;;;;;;;7.03;100.00;102320.63;4837863;29;20586;-80
2021/12/14 02:07:46;;;;;;;41.85;32.50;;;;;;;7.01;100.00;102304.63;4807708;29;20644;-81
2021/12/14 02:10:25;;;;;;;42.60;32.15;;;;;;;6.99;100.00;102302.84;4833603;29;20190;-78
2021/12/14 02:12:51;;;;;;;42.65;32.38;;;;;;;7.03;100.00;102299.31;4844985;29;20206;-79
2021/12/14 02:15:21;;;;;;;40.13;31.27;;;;;;;7.02;100.00;102302.88;4845225;29;20197;-79
2021/12/14 02:17:51;;;;;;;42.25;31.73;;;;;;;7.00;100.00;102284.22;4860175;29;20194;-80
2021/12/14 02:20:23;;;;;;;36.33;29.75;;;;;;;7.02;100.00;102289.56;4862243;29;20177;-80
2021/12/14 02:22:49;;;;;;;39.58;30.08;;;;;;;7.01;100.00;102288.63;4846538;29;20738;-79
2021/12/14 02:25:16;;;;;;;36.92;28.60;;;;;;;7.10;100.00;102281.53;4846015;29;20189;-78
2021/12/14 02:27:44;;;;;;;35.05;28.98;;;;;;;7.09;100.00;102282.44;4861067;29;20182;-79
2021/12/14 02:32:39;;;;;;;31.95;26.50;;;;;;;7.04;100.00;102279.78;4880067;29;20220;-80
2021/12/14 02:35:08;;;;;;;33.30;27.60;;;;;;;7.06;100.00;102283.31;4847845;29;20202;-80
2021/12/14 02:37:45;;;;;;;31.58;25.98;;;;;;;7.09;100.00;102296.66;4874557;29;20178;-80
2021/12/14 02:40:53;;;;;;;32.95;26.08;;;;;;;7.02;100.00;102289.56;4861725;29;20273;-79
2021/12/14 02:43:34;;;;;;;32.33;27.02;;;;;;;7.05;100.00;102283.31;4844486;29;20169;-79
2021/12/14 02:46:16;;;;;;;31.63;24.90;;;;;;;7.14;100.00;102307.31;4860106;29;20569;-79
2021/12/14 02:48:45;;;;;;;32.88;25.75;;;;;;;7.08;100.00;102308.19;4874605;29;20197;-79
2021/12/14 02:51:17;;;;;;;29.77;24.80;;;;;;;7.07;100.00;102290.44;4860157;29;20381;-81
2021/12/14 02:53:45;;;;;;;34.97;25.85;;;;;;;7.04;100.00;102277.13;4876836;29;20406;-80
2021/12/14 02:56:14;;;;;;;30.58;24.98;;;;;;;7.05;100.00;102286.00;4845420;29;20237;-81
2021/12/14 02:58:41;;;;;;;29.52;24.55;;;;;;;7.10;100.00;102279.75;4845004;29;20227;-81
2021/12/14 03:01:09;;;;;;;34.00;25.15;;;;;;;7.06;100.00;102269.09;4874902;29;20281;-81
2021/12/14 03:03:35;;;;;;;30.08;25.27;;;;;;;7.03;100.00;102270.00;4845064;29;20178;-82
2021/12/14 03:06:02;;;;;;;31.45;26.60;;;;;;;7.03;100.00;102271.78;4861662;29;20235;-80
2021/12/14 03:08:31;;;;;;;30.60;26.10;;;;;;;7.04;100.00;102273.53;4846576;29;20289;-79
2021/12/14 03:11:10;;;;;;;27.58;23.77;;;;;;;7.04;100.00;102265.53;4864214;29;20213;-79
2021/12/14 03:13:39;;;;;;;29.67;25.38;;;;;;;7.00;100.00;102267.34;4847396;29;20249;-79
2021/12/14 03:16:09;;;;;;;32.80;23.77;;;;;;;6.96;100.00;102266.44;4861970;29;20205;-79
2021/12/14 03:18:39;;;;;;;28.58;24.83;;;;;;;7.00;100.00;102275.34;4844241;29;20192;-79
2021/12/14 03:21:12;;;;;;;36.90;24.63;;;;;;;6.97;100.00;102275.31;4864278;29;20190;-79
2021/12/14 03:26:10;;;;;;;31.33;25.33;;;;;;;6.95;100.00;102264.69;5059504;23;20301;-80
2021/12/14 03:28:37;;;;;;;27.98;24.45;;;;;;;6.97;100.00;102259.34;4897504;29;20276;-79
2021/12/14 03:31:09;;;;;;;31.25;25.40;;;;;;;6.98;100.00;102261.13;4880079;29;20210;-79
2021/12/14 03:33:43;;;;;;;33.25;25.83;;;;;;;6.97;100.00;102262.00;4853635;29;20638;-79
2021/12/14 03:36:13;;;;;;;28.63;24.55;;;;;;;6.97;100.00;102267.31;4867696;29;20194;-79
2021/12/14 03:38:50;;;;;;;29.80;24.63;;;;;;;6.97;100.00;102254.00;4848453;29;20186;-78
2021/12/14 03:41:30;;;;;;;31.88;25.65;;;;;;;6.97;100.00;102251.34;4845834;29;20283;-80
2021/12/14 03:44:10;;;;;;;31.77;25.80;;;;;;;6.93;100.00;102258.47;4845383;29;20186;-80
2021/12/14 03:46:54;;;;;;;33.00;26.45;;;;;;;6.95;100.00;102248.69;4844727;29;20206;-80
2021/12/14 03:49:23;;;;;;;35.60;26.45;;;;;;;6.94;100.00;102246.91;4829862;29;20170;-79
2021/12/14 03:51:51;;;;;;;33.55;27.90;;;;;;;6.90;100.00;102253.13;4844803;29;20831;-79
2021/12/14 03:54:16;;;;;;;33.85;26.92;;;;;;;6.93;100.00;102244.22;4845027;29;20214;-79
2021/12/14 03:56:44;;;;;;;34.25;28.23;;;;;;;6.87;100.00;102242.47;4844316;29;20182;-79
2021/12/14 03:59:10;;;;;;;37.30;29.02;;;;;;;6.85;100.00;102230.03;4844198;29;20186;-79
2021/12/14 04:01:39;;;;;;;40.55;29.58;;;;;;;6.84;100.00;102236.25;4844514;29;20638;-80
2021/12/14 04:04:33;;;;;;;40.88;29.45;;;;;;;6.73;100.00;102225.59;4847459;29;20197;-80
2021/12/14 04:07:02;;;;;;;40.63;31.20;;;;;;;6.76;100.00;102225.59;4830895;29;20177;-79
2021/12/14 04:09:32;;;;;;;39.42;31.23;;;;;;;6.72;100.00;102221.16;4849791;29;20186;-80
2021/12/14 04:11:59;;;;;;;41.78;31.88;;;;;;;6.71;100.00;102228.28;4866190;29;20686;-81
2021/12/14 04:14:29;;;;;;;42.35;31.33;;;;;;;6.73;100.00;102214.94;4860522;29;20193;-80
2021/12/14 04:16:57;;;;;;;40.03;31.77;;;;;;;6.68;100.00;102217.59;4857440;29;20177;-80
2021/12/14 04:19:28;;;;;;;39.92;31.05;;;;;;;6.74;100.00;102222.06;4881539;29;20181;-80
2021/12/14 04:22:01;;;;;;;42.15;31.92;;;;;;;6.69;100.00;102206.06;4881880;29;20203;-80
2021/12/14 04:24:33;;;;;;;39.28;31.60;;;;;;;6.72;100.00;102207.84;4867671;29;20177;-78
2021/12/14 04:29:34;;;;;;;42.75;32.28;;;;;;;6.70;100.00;102212.28;5578074;23;20715;-79
2021/12/14 04:32:06;;;;;;;40.13;32.10;;;;;;;6.69;100.00;102215.81;4866280;29;20213;-78
2021/12/14 04:34:33;;;;;;;42.30;32.80;;;;;;;6.70;100.00;102223.81;4866294;29;20177;-79
2021/12/14 04:37:04;;;;;;;40.55;31.92;;;;;;;6.73;100.00;102210.47;4872469;29;20186;-79
2021/12/14 04:39:39;;;;;;;39.75;31.98;;;;;;;6.72;100.00;102208.72;4829206;29;20203;-79
2021/12/14 04:53:45;;;;;;;40.45;30.83;;;;;;;6.71;100.00;102216.72;4859377;29;20249;-80
2021/12/14 04:56:32;;;;;;;38.63;31.77;;;;;;;6.79;100.00;102209.59;4828992;29;20210;-80
2021/12/14 04:59:11;;;;;;;37.95;30.30;;;;;;;6.77;100.00;102203.41;4859083;29;20620;-80
2021/12/14 05:01:40;;;;;;;37.33;28.45;;;;;;;6.77;100.00;102214.94;4829804;29;20207;-80
2021/12/14 05:04:11;;;;;;;40.53;30.63;;;;;;;6.78;100.00;102203.41;4830719;29;20274;-80
2021/12/14 05:06:49;;;;;;;37.90;29.73;;;;;;;6.79;100.00;102217.59;4845954;29;20183;-81
2021/12/14 05:09:26;;;;;;;36.67;30.45;;;;;;;6.79;100.00;102210.50;4830073;29;20833;-80
2021/12/14 05:12:09;;;;;;;38.33;29.67;;;;;;;6.82;100.00;102196.28;4829553;29;20222;-80
2021/12/14 05:14:45;;;;;;;41.42;30.85;;;;;;;6.73;100.00;102198.94;4829275;29;20183;-80
2021/12/14 05:17:20;;;;;;;38.33;30.52;;;;;;;6.67;100.00;102201.59;4858677;29;20276;-80
2021/12/14 05:19:49;;;;;;;41.92;31.40;;;;;;;6.69;100.00;102215.81;4860059;29;20211;-79
2021/12/14 05:22:18;;;;;;;38.42;30.27;;;;;;;6.69;100.00;102213.16;4904556;24;20241;-80
2021/12/14 05:24:52;;;;;;;40.50;31.10;;;;;;;6.68;100.00;102208.72;4852881;29;20187;-80
2021/12/14 05:27:26;;;;;;;41.13;31.02;;;;;;;6.65;100.00;102208.72;4870079;29;20190;-80
2021/12/14 05:32:27;;;;;;;35.97;28.52;;;;;;;6.66;100.00;102203.41;5212943;23;20251;-79
2021/12/14 05:34:53;;;;;;;38.10;28.80;;;;;;;6.67;100.00;102201.59;4868812;29;20314;-80
2021/12/14 05:37:25;;;;;;;37.78;29.45;;;;;;;6.69;100.00;102203.41;4867002;29;20181;-80
2021/12/14 05:40:00;;;;;;;37.97;30.30;;;;;;;6.65;100.00;102198.06;4847364;29;20186;-81
2021/12/14 05:45:23;;;;;;;40.08;30.50;;;;;;;6.69;100.00;102207.81;4846783;29;20797;-81
2021/12/14 05:47:54;;;;;;;41.13;31.05;;;;;;;6.79;100.00;102213.16;4846933;29;20246;-81
2021/12/14 05:50:40;;;;;;;38.45;29.70;;;;;;;6.68;100.00;102208.72;4847644;29;20185;-80
2021/12/14 05:53:07;;;;;;;40.63;31.05;;;;;;;6.76;100.00;102212.28;4832458;29;20682;-80
2021/12/14 05:58:16;;;;;;;41.83;30.35;;;;;;;6.73;100.00;102214.94;4908399;23;20305;-80
2021/12/14 06:00:45;;;;;;;42.08;30.10;;;;;;;6.71;100.00;102219.38;4890746;29;20173;-80
2021/12/14 06:03:20;;;;;;;41.10;30.75;;;;;;;6.76;100.00;102220.28;4849027;29;20182;-79
2021/12/14 06:05:47;;;;;;;41.10;29.15;;;;;;;6.85;100.00;102222.94;4865947;29;20197;-79
2021/12/14 06:08:22;;;;;;;37.60;28.92;;;;;;;6.78;100.00;102231.81;4864039;29;20260;-80
2021/12/14 06:10:51;;;;;;;42.80;29.90;;;;;;;6.73;100.00;102221.13;4864398;29;20264;-80
2021/12/14 06:13:18;;;;;;;39.72;29.85;;;;;;;6.74;100.00;102217.59;4849683;29;20216;-80
2021/12/14 06:15:44;;;;;;;43.70;29.73;;;;;;;6.76;100.00;102218.50;4864587;29;20551;-80
2021/12/14 06:18:24;;;;;;;42.92;30.08;;;;;;;6.75;100.00;102219.38;4850782;29;20177;-79
2021/12/14 06:21:00;;;;;;;42.33;29.50;;;;;;;6.81;100.00;102214.03;4864092;29;20201;-80
2021/12/14 06:23:30;;;;;;;41.78;29.40;;;;;;;6.76;100.00;102215.84;4849091;29;20193;-80
2021/12/14 06:26:05;;;;;;;43.92;29.65;;;;;;;6.81;100.00;102216.72;4879696;29;20195;-80
2021/12/14 06:28:31;;;;;;;37.15;28.70;;;;;;;6.86;100.00;102229.13;4878635;29;20185;-79
2021/12/14 06:31:00;;;;;;;37.97;28.50;;;;;;;6.84;100.00;102223.81;4878693;29;20578;-80
2021/12/14 06:33:31;;;;;;;42.63;29.10;;;;;;;6.87;100.00;102226.47;4865842;29;20197;-79
2021/12/14 06:35:59;;;;;;;48.42;31.13;;;;;;;6.80;100.00;102222.06;4865783;29;20200;-79
2021/12/14 06:38:31;;;;;;;47.95;32.15;;;;;;;6.80;100.00;102232.72;4849033;29;20236;-79
2021/12/14 06:41:12;;;;;;;43.30;29.83;;;;;;;6.80;100.00;102238.91;4865432;29;20221;-80
2021/12/14 06:43:58;;;;;;;42.42;29.42;;;;;;;6.80;100.00;102236.25;4844867;29;20190;-81
2021/12/14 06:46:43;;;;;;;44.50;30.33;;;;;;;6.76;100.00;102236.25;4861764;29;20174;-79
2021/12/14 06:49:16;;;;;;;46.80;28.45;;;;;;;6.75;100.00;102230.03;4847267;29;20172;-80
2021/12/14 06:51:52;;;;;;;48.03;29.70;;;;;;;6.75;100.00;102246.00;4847886;29;20218;-79
2021/12/14 06:54:27;;;;;;;44.28;27.40;;;;;;;6.78;100.00;102234.50;4846686;29;20200;-79
2021/12/14 06:56:56;;;;;;;37.30;25.48;;;;;;;6.83;100.00;102242.47;4862642;29;20213;-79
2021/12/14 06:59:31;;;;;;;38.63;26.83;;;;;;;6.75;100.00;102243.34;4831853;29;20170;-79
2021/12/14 07:02:08;;;;;;;37.60;25.63;;;;;;;6.77;100.00;102246.00;4862080;29;20213;-79
2021/12/14 07:04:48;;;;;;;42.80;26.73;;;;;;;6.77;100.00;102254.00;4843329;29;20169;-79
2021/12/14 07:07:23;;;;;;;42.58;26.30;;;;;;;6.81;100.00;102264.66;4841504;29;20178;-79
2021/12/14 07:09:55;;;;;;;35.35;24.33;;;;;;;6.76;100.00;102257.56;4842815;29;20219;-79
2021/12/14 07:12:33;;;;;;;36.80;25.00;;;;;;;6.76;100.00;102271.78;4840297;29;20274;-79
2021/12/14 07:15:01;;;;;;;37.80;23.85;;;;;;;6.78;100.00;102270.00;4841929;29;20185;-79
2021/12/14 07:17:40;;;;;;;39.17;25.45;;;;;;;6.77;100.00;102283.31;4810141;29;20229;-79
2021/12/14 07:20:25;;;;;;;38.53;24.88;;;;;;;6.77;100.00;102272.66;4841274;29;20303;-79
2021/12/14 07:23:03;;;;;;;40.40;25.00;;;;;;;6.82;100.00;102278.84;4827573;29;20206;-79
2021/12/14 07:25:36;;;;;;;37.33;24.88;;;;;;;6.77;100.00;102281.53;4837075;29;20174;-80
2021/12/14 07:28:08;;;;;;;36.50;24.55;;;;;;;6.86;100.00;102277.97;4858133;29;20696;-79
2021/12/14 07:30:41;;;;;;;38.63;23.83;;;;;;;6.79;100.00;102278.88;4841945;29;20218;-79
2021/12/14 07:33:13;;;;;;;32.80;21.67;;;;;;;6.86;100.00;102295.75;4842720;29;20170;-79
2021/12/14 07:35:54;;;;;;;33.45;21.92;;;;;;;6.84;100.00;102293.06;4842909;29;20289;-79
2021/12/14 07:38:23;;;;;;;33.15;23.48;;;;;;;6.81;100.00;102301.94;4845490;29;20524;-79
2021/12/14 07:40:57;;;;;;;31.23;21.88;;;;;;;6.93;100.00;102309.09;4876202;29;20202;-79
2021/12/14 07:43:30;;;;;;;30.85;21.67;;;;;;;6.85;100.00;102302.84;4868743;29;20306;-80
2021/12/14 07:45:57;;;;;;;32.63;21.70;;;;;;;6.88;100.00;102312.63;4844774;29;20248;-78
2021/12/14 07:48:43;;;;;;;28.95;20.67;;;;;;;6.87;100.00;102313.53;4837104;29;20175;-78
2021/12/14 07:51:10;;;;;;;30.00;21.15;;;;;;;6.80;100.00;102317.97;4843520;29;20216;-77
2021/12/14 07:53:41;;;;;;;26.98;19.50;;;;;;;6.88;100.00;102316.16;4844714;29;20201;-77
2021/12/14 07:56:09;;;;;;;29.60;21.05;;;;;;;6.85;100.00;102310.84;4860548;29;20738;-80
2021/12/14 07:58:46;;;;;;;26.38;19.95;;;;;;;6.85;100.00;102305.53;4877918;29;20628;-78
2021/12/14 08:01:13;;;;;;;24.73;18.60;;;;;;;6.91;100.00;102301.94;4847672;29;20233;-79
2021/12/14 08:03:40;;;;;;;22.60;18.10;;;;;;;6.87;100.00;102297.53;4877351;29;20169;-78
2021/12/14 08:06:08;;;;;;;23.50;18.00;;;;;;;6.84;100.00;102298.41;4860808;29;20189;-78
2021/12/14 08:08:44;;;;;;;23.00;17.52;;;;;;;6.79;100.00;102313.50;4876865;29;20178;-78
2021/12/14 08:14:21;;;;;;;20.27;16.33;;;;;;;6.88;100.00;102307.28;4860523;29;20215;-78
2021/12/14 08:16:52;;;;;;;21.65;16.33;;;;;;;6.82;100.00;102310.81;4844865;29;20726;-78
2021/12/14 08:19:44;;;;;;;21.05;16.85;;;;;;;6.81;100.00;102309.06;4877675;29;20189;-78
2021/12/14 08:22:29;;;;;;;22.45;15.60;;;;;;;6.78;100.00;102309.06;4842813;29;20652;-80
2021/12/14 08:24:56;;;;;;;21.38;16.48;;;;;;;6.79;100.00;102319.72;4876219;29;20214;-80
2021/12/14 08:27:25;;;;;;;18.42;14.45;;;;;;;6.86;100.00;102323.25;4844960;29;20189;-81
2021/12/14 08:29:53;;;;;;;19.55;16.60;;;;;;;6.83;100.00;102325.94;4877617;29;20659;-79
2021/12/14 08:32:24;;;;;;;17.17;15.27;;;;;;;6.87;100.00;102322.41;4860246;29;20343;-80
2021/12/14 08:34:52;;;;;;;21.40;17.05;;;;;;;6.77;100.00;102337.47;4876102;29;20197;-78
2021/12/14 08:37:25;;;;;;;22.98;16.05;;;;;;;6.78;100.00;102336.59;4853003;29;20186;-80
2021/12/14 08:40:02;;;;;;;22.52;17.38;;;;;;;6.78;100.00;102339.25;4841995;29;20190;-80
2021/12/14 08:42:39;;;;;;;22.42;16.88;;;;;;;6.78;100.00;102347.25;4860119;29;20203;-79
2021/12/14 08:45:26;;;;;;;19.23;14.77;;;;;;;6.84;100.00;102351.69;4843777;29;20205;-79
2021/12/14 08:47:56;;;;;;;19.77;14.98;;;;;;;6.81;100.00;102355.22;4858601;29;20214;-79
2021/12/14 08:50:23;;;;;;;21.02;15.38;;;;;;;6.78;100.00;102346.38;4846195;29;20196;-79
2021/12/14 08:52:51;;;;;;;21.98;16.48;;;;;;;6.78;100.00;102346.38;4848270;29;20664;-79
2021/12/14 08:55:17;;;;;;;19.08;15.32;;;;;;;6.86;100.00;102341.03;4849300;29;20223;-78
2021/12/14 08:57:43;;;;;;;20.85;16.67;;;;;;;6.77;100.00;102337.47;4865582;29;20303;-79
2021/12/14 09:00:19;;;;;;;21.55;16.17;;;;;;;6.77;100.00;102347.22;4863488;29;20207;-79
2021/12/14 09:02:46;;;;;;;19.33;15.38;;;;;;;6.95;100.00;102357.03;4864938;29;20201;-79
2021/12/14 09:05:19;;;;;;;22.60;16.75;;;;;;;6.76;100.00;102349.03;4864142;29;20194;-79
2021/12/14 09:07:45;;;;;;;20.40;15.23;;;;;;;6.86;100.00;102365.00;4847481;29;20200;-78
2021/12/14 09:10:15;;;;;;;23.52;16.98;;;;;;;6.81;100.00;102357.91;4847975;29;20171;-79
2021/12/14 09:12:44;;;;;;;24.73;16.85;;;;;;;6.84;100.00;102374.78;4847444;29;20209;-79
2021/12/14 09:15:14;;;;;;;21.88;15.85;;;;;;;6.92;100.00;102378.34;4862890;29;20186;-80
2021/12/14 09:17:40;;;;;;;29.17;16.33;;;;;;;6.88;100.00;102384.56;4861472;29;20189;-80
2021/12/14 09:20:14;;;;;;;22.50;15.82;;;;;;;6.91;100.00;102385.47;4863025;29;20186;-80
2021/12/14 09:22:50;;;;;;;23.52;16.20;;;;;;;6.87;100.00;102389.00;4861748;29;20262;-80
2021/12/14 09:25:20;;;;;;;21.35;15.52;;;;;;;6.88;100.00;102397.88;4846885;29;20185;-79
2021/12/14 09:27:46;;;;;;;24.73;16.35;;;;;;;6.92;100.00;102397.88;4845968;29;20181;-79
2021/12/14 09:30:15;;;;;;;23.92;15.45;;;;;;;6.95;100.00;102408.56;4847491;29;20707;-79
2021/12/14 09:32:41;;;;;;;25.75;15.73;;;;;;;6.99;100.00;102410.31;4846385;29;20579;-78
2021/12/14 09:35:14;;;;;;;19.08;14.25;;;;;;;7.08;100.00;102414.78;4845086;29;20178;-79
2021/12/14 09:37:40;;;;;;;20.92;14.90;;;;;;;7.14;100.00;102413.91;4850379;29;20608;-80
2021/12/14 09:40:19;;;;;;;25.45;16.13;;;;;;;7.15;100.00;102415.69;4826277;29;20171;-80
2021/12/14 09:42:45;;;;;;;21.92;13.82;;;;;;;7.24;100.00;102415.72;4826336;29;20217;-80
2021/12/14 09:45:19;;;;;;;24.15;15.00;;;;;;;7.27;100.00;102421.03;4825895;29;20178;-80
2021/12/14 09:47:45;;;;;;;19.60;13.32;;;;;;;7.34;100.00;102412.16;4827315;29;20270;-80
2021/12/14 09:50:31;;;;;;;18.60;14.27;;;;;;;7.36;100.00;102410.38;4844911;29;20204;-79
2021/12/14 09:53:00;;;;;;;23.55;15.25;;;;;;;7.22;100.00;102401.50;4828558;29;20321;-79
2021/12/14 09:55:30;;;;;;;18.52;13.63;;;;;;;7.26;100.00;102410.38;4844837;29;20175;-80
2021/12/14 09:58:01;;;;;;;17.30;13.02;;;;;;;7.23;100.00;102398.81;4842038;29;20205;-78
2021/12/14 10:00:50;;;;;;;17.77;11.77;;;;;;;7.28;100.00;102409.50;4840808;29;20264;-78
2021/12/14 10:03:17;;;;;;;18.20;13.55;;;;;;;7.21;100.00;102402.38;4842586;29;20191;-79
2021/12/14 10:05:55;;;;;;;20.00;13.38;;;;;;;7.23;100.00;102400.59;4844705;29;20532;-78
2021/12/14 10:08:26;;;;;;;18.70;13.13;;;;;;;7.16;100.00;102390.81;4843318;29;20182;-79
2021/12/14 10:11:04;;;;;;;15.82;11.88;;;;;;;7.24;100.00;102389.06;4844106;29;20206;-79
2021/12/14 10:13:34;;;;;;;15.13;11.25;;;;;;;7.18;100.00;102379.25;4827488;29;20194;-79
2021/12/14 10:16:01;;;;;;;15.68;10.93;;;;;;;7.30;100.00;102381.03;4843076;29;20190;-80
2021/12/14 10:18:35;;;;;;;15.38;11.02;;;;;;;7.31;100.00;102390.84;4843466;29;20199;-79
2021/12/14 10:21:09;;;;;;;14.98;10.35;;;;;;;7.33;100.00;102389.06;4827129;29;20231;-79
2021/12/14 10:23:38;;;;;;;13.18;9.93;;;;;;;7.39;100.00;102405.06;4844465;29;20246;-80
2021/12/14 10:26:05;;;;;;;14.82;9.27;;;;;;;7.40;100.00;102398.81;4827349;29;20198;-80
2021/12/14 10:28:34;;;;;;;11.88;9.15;;;;;;;7.35;100.00;102403.28;4826224;29;20641;-80
2021/12/14 10:31:03;;;;;;;11.93;8.48;;;;;;;7.33;100.00;102404.16;4843061;29;20688;-80
2021/12/14 10:33:32;;;;;;;9.35;7.05;;;;;;;7.38;100.00;102408.59;4842274;29;20205;-80
2021/12/14 10:36:05;;;;;;;10.70;7.80;;;;;;;7.27;100.00;102405.03;4827167;29;20274;-80
2021/12/14 10:38:40;;;;;;;11.35;7.20;;;;;;;7.30;100.00;102414.81;4844698;29;20556;-80
2021/12/14 10:43:59;;;;;;;11.15;7.32;;;;;;;7.30;100.00;102418.38;4861526;29;20543;-80
2021/12/14 10:46:29;;;;;;;10.27;6.80;;;;;;;7.31;100.00;102421.94;4830135;29;20200;-80
2021/12/14 10:48:55;;;;;;;8.30;6.13;;;;;;;7.25;100.00;102417.47;4845059;29;20175;-79
2021/12/14 10:51:27;;;;;;;7.07;5.80;;;;;;;7.26;100.00;102421.03;4861881;29;20214;-80
2021/12/14 10:53:55;;;;;;;6.40;4.68;;;;;;;7.27;100.00;102428.16;4862686;29;20220;-79
2021/12/14 10:56:27;;;;;;;7.50;5.47;;;;;;;7.30;100.00;102437.03;4861626;29;20212;-80
2021/12/14 10:58:56;;;;;;;6.00;4.70;;;;;;;7.28;100.00;102436.16;4861852;29;20189;-81
2021/12/14 11:01:30;;;;;;;6.28;3.97;;;;;;;7.34;100.00;102429.94;4861305;29;20202;-79
2021/12/14 11:04:05;;;;;;;3.85;3.13;;;;;;;7.44;100.00;102450.41;4848875;29;20185;-79
2021/12/14 11:06:33;;;;;;;5.30;3.28;;;;;;;7.49;100.00;102445.06;4842936;29;20265;-79
2021/12/14 11:11:38;;;;;;;4.00;3.17;;;;;;;7.42;100.00;102447.72;4850230;29;20249;-79
2021/12/14 11:14:11;;;;;;;5.13;3.35;;;;;;;7.52;100.00;102442.38;4867138;29;20174;-79
2021/12/14 11:19:32;;;;;;;6.55;4.78;;;;;;;7.55;100.00;102448.63;4845631;29;20174;-80
2021/12/14 11:22:21;;;;;;;6.55;4.50;;;;;;;7.52;100.00;102453.03;4862009;29;20567;-79
2021/12/14 11:24:52;;;;;;;4.97;3.95;;;;;;;7.51;100.00;102457.50;4845620;29;20181;-80
2021/12/14 11:27:25;;;;;;;5.05;4.43;;;;;;;7.45;100.00;102449.50;4829860;29;20198;-81
2021/12/14 11:30:06;;;;;;;5.40;3.88;;;;;;;7.52;100.00;102445.03;4861250;29;20565;-81
2021/12/14 11:32:32;;;;;;;6.25;3.67;;;;;;;7.42;100.00;102447.72;4861098;29;20217;-81
2021/12/14 11:34:57;;;;;;;4.97;3.60;;;;;;;7.49;100.00;102437.94;4861555;29;20291;-80
2021/12/14 11:37:33;;;;;;;4.38;3.35;;;;;;;7.56;100.00;102444.16;4870634;29;20703;-79
2021/12/14 11:39:58;;;;;;;5.15;3.75;;;;;;;7.55;100.00;102429.06;4844606;29;20190;-79
2021/12/14 11:42:27;;;;;;;5.25;3.70;;;;;;;7.54;100.00;102441.53;4861289;29;20200;-79
2021/12/14 11:45:16;;;;;;;5.43;3.83;;;;;;;7.35;100.00;102440.59;4860308;29;20245;-79
2021/12/14 11:47:48;;;;;;;5.07;4.00;;;;;;;7.51;100.00;102438.84;4858565;29;20190;-79
2021/12/14 11:50:30;;;;;;;5.55;3.95;;;;;;;7.34;100.00;102444.16;4829142;29;20226;-79
2021/12/14 11:53:13;;;;;;;5.38;3.80;;;;;;;7.38;100.00;102445.94;4861224;29;20342;-79
2021/12/14 11:55:53;;;;;;;5.50;3.67;;;;;;;7.41;100.00;102450.38;4860607;29;20850;-80
2021/12/14 11:58:45;;;;;;;5.32;3.55;;;;;;;7.41;100.00;102461.94;4859559;29;20176;-79
2021/12/14 12:01:23;;;;;;;3.88;2.67;;;;;;;7.31;100.00;102460.16;4844626;29;20245;-79
2021/12/14 12:03:55;;;;;;;2.45;2.25;;;;;;;7.43;100.00;102461.94;4861191;29;20188;-79
2021/12/14 12:09:28;;;;;;;4.15;3.15;;;;;;;7.41;100.00;102461.03;4844783;29;20182;-78
2021/12/14 12:09:39;;;;;;;3.45;2.85;;;;;;;7.46;100.00;102469.06;4861349;29;20186;-79
2021/12/14 12:12:07;;;;;;;4.07;3.58;;;;;;;7.42;100.00;102458.38;4844190;29;20744;-79
2021/12/14 12:14:53;;;;;;;6.55;4.00;;;;;;;7.53;100.00;102460.19;4861264;29;20225;-79
2021/12/14 12:17:30;;;;;;;7.97;4.20;;;;;;;7.48;100.00;102464.59;4858714;29;20660;-80
2021/12/14 12:20:18;;;;;;;5.70;4.70;;;;;;;7.48;100.00;102459.25;4844642;29;20174;-80
2021/12/14 12:22:49;;;;;;;5.30;4.45;;;;;;;7.46;100.00;102461.06;4861211;29;20202;-80
2021/12/14 12:25:19;;;;;;;3.80;3.50;;;;;;;7.48;100.00;102461.94;4847414;29;20182;-80
2021/12/14 12:27:50;;;;;;;5.90;3.22;;;;;;;7.47;100.00;102465.50;4847110;29;20194;-80